OMFJ/FJR METAR and TAF weather

Enter ICAO airport designator
Station Type Date Time Source
OMFJ METAR 2019/06/27 10:00 UTC NOAA

OMFJ 271000Z 06009KT 030V110 5000 HZ FEW018 35/29 Q0998 A2949


Station Type Date Time Source
OMFJ Decoded METAR 2019/06/27 10:00 UTC NOAA

Fujairah, United Arab Emirates (OMFJ) 25-06N 056-20E 28M
Jun 27, 2019 - 06:00 AM EDT / 2019.06.27 1000 UTC
Wind: from the ENE (060 degrees) at 10 MPH (9 KT) (direction variable):0
Visibility: 3 mile(s):0
Sky conditions: mostly clear
Weather: haze
Temperature: 95 F (35 C)
Heat index: 123.6 F (50.9 C):1
Dew Point: 84 F (29 C)
Relative Humidity: 71%
Pressure (altimeter): 29.49 in. Hg (998 hPa)
ob: OMFJ 271000Z 06009KT 030V110 5000 HZ FEW018 35/29 Q0998 A2949
cycle: 10

Station Type Date Time Source
OMFJ TAF 2019/06/27 06:03 UTC NOAA

TAF OMFJ 270500Z 2706/2812 09008KT 7000 NSC
BECMG 2714/2716 16005KT PROB40 2720/2803 VRB03KT 4000 HZ
BECMG 2804/2806 09010KT

Example: see airport list